Burlington Intl Information

FAA: BTV - ICAO: KBTV

Burlington Intl (Airport) Location

State Vermont
County Chittenden
City Burlington
Burlington Intl (Airport) is 3 miles east of Burlington, VT.
Latitude 44-28-19.0380N
Longitude 073-09-11.7940W
Elevation 334ft

Burlington Intl METARs

METAR KBTV 182254Z 30007KT 10SM BKN060 09/04 A2985 RMK AO2 SLP108 T00890039
Altimeter 29.85"
Temperature 8.9°C (48.0°F)
Wind 300° at 7KT
Clouds broken at 6,000ft
Visibility 10.0mi
Time observed: 2021-10-18T22:54:00Z

Burlington Intl (Airport) Details

Status Operational
Activation September 1937
Ownership Public
Usage Public
Chart MONTREAL
ATC on-site Yes
Beacon schedule sunset-sunrise
Beacon color clear green

Burlington Intl (Airport) Contacts

Owner CITY OF BURLINGTON
Owner address CITY HALL, BURLINGTON, VT 05401
Owner phone 802-865-7272
Manager STEVE GILBERT
Manager address P O BOX 665, CEDAR CITY, UT 84720
Manager phone 435-586-5138

Burlington Intl Radio Frequencies

Burlington Intl (Airport) Radio Frequencies

UNICOM 122.95
Common traffic advisory frequency (CTAF) 118.3